Time;durP1;ratioP1;P1;durP2;ratioP2;P2;SDS_P1;SDS_P2;PMS_P1;PMS_P2;Temp;Humidity;BMP_temperature;BMP_pressure;BME280_temperature;BME280_humidity;BME280_pressure;Samples;Min_cycle;Max_cycle;Signal;HPM_P1;HPM_P2
2021/09/30 00:00:43;;;;;;;14.75;1.15;;;;;;;;;;4953945;28;20041;-61
2021/09/30 00:03:09;;;;;;;6.22;0.90;;;;;;;;;;4936834;28;20714;-59
2021/09/30 00:05:38;;;;;;;5.85;0.65;;;;;;;;;;4951971;28;20034;-59
2021/09/30 00:08:04;;;;;;;7.65;0.57;;;;;;;;;;4919468;28;20030;-59
2021/09/30 00:10:29;;;;;;;13.68;1.05;;;;;;;;;;4953549;28;22024;-60
2021/09/30 00:13:05;;;;;;;26.63;1.40;;;;;;;;;;4919095;28;20905;-60
2021/09/30 00:15:42;;;;;;;10.10;0.60;;;;;;;;;;4936059;28;20034;-59
2021/09/30 00:34:35;;;;;;;4.47;0.65;;;;;;;;;;4952011;28;20041;-60
2021/09/30 00:47:48;;;;;;;14.47;0.80;;;;;;;;;;4954757;28;20053;-61
2021/09/30 00:52:49;;;;;;;11.15;0.82;;;;;;;;;;4950157;28;20034;-60
2021/09/30 02:19:13;;;;;;;9.45;1.00;;;;;;;;;;4963074;28;20065;-61
2021/09/30 02:38:55;;;;;;;6.50;1.27;;;;;;;;;;4947314;28;20061;-60
2021/09/30 02:59:40;;;;;;;8.70;1.10;;;;;;;;;;4947043;28;20106;-60
2021/09/30 03:02:09;;;;;;;7.80;1.00;;;;;;;;;;4945907;28;20043;-61
2021/09/30 03:04:38;;;;;;;4.00;0.77;;;;;;;;;;4963832;28;20047;-62
2021/09/30 03:07:08;;;;;;;9.30;0.90;;;;;;;;;;4931483;28;20039;-61
2021/09/30 03:09:52;;;;;;;8.70;1.05;;;;;;;;;;4964219;28;20034;-61
2021/09/30 03:12:25;;;;;;;6.18;1.00;;;;;;;;;;4944039;28;20049;-61
2021/09/30 03:23:22;;;;;;;6.15;0.90;;;;;;;;;;4953072;28;19914;-61
2021/09/30 03:25:53;;;;;;;8.68;1.17;;;;;;;;;;4946890;28;20542;-61
2021/09/30 03:28:21;;;;;;;8.90;0.75;;;;;;;;;;4937269;28;20034;-61
2021/09/30 03:30:47;;;;;;;6.95;0.77;;;;;;;;;;4938075;28;20062;-61
2021/09/30 03:33:13;;;;;;;5.65;1.15;;;;;;;;;;4951297;28;20034;-61
2021/09/30 03:35:39;;;;;;;11.60;1.48;;;;;;;;;;4971657;28;20029;-59
2021/09/30 03:38:10;;;;;;;13.05;1.38;;;;;;;;;;4951733;28;20045;-60
2021/09/30 03:40:39;;;;;;;14.90;1.63;;;;;;;;;;4936265;28;20052;-59
2021/09/30 03:43:09;;;;;;;7.93;0.88;;;;;;;;;;4966263;28;20053;-60
2021/09/30 03:45:37;;;;;;;8.55;0.90;;;;;;;;;;4931923;28;20034;-60
2021/09/30 03:48:08;;;;;;;7.40;1.08;;;;;;;;;;4936843;28;20042;-60
2021/09/30 03:50:47;;;;;;;4.60;1.00;;;;;;;;;;4937265;28;20042;-60
2021/09/30 03:53:22;;;;;;;6.15;0.85;;;;;;;;;;4969849;28;20046;-60
2021/09/30 03:56:07;;;;;;;12.23;0.93;;;;;;;;;;4938391;28;20030;-59
2021/09/30 04:01:17;;;;;;;6.95;0.70;;;;;;;;;;4964874;28;20097;-59
2021/09/30 04:03:48;;;;;;;7.25;1.05;;;;;;;;;;4922069;28;20165;-60
2021/09/30 04:06:13;;;;;;;5.97;0.85;;;;;;;;;;4937681;28;20077;-60
2021/09/30 04:08:40;;;;;;;5.93;1.23;;;;;;;;;;4922024;28;20145;-60
2021/09/30 04:11:05;;;;;;;8.38;0.65;;;;;;;;;;4954849;28;20951;-61
2021/09/30 04:13:30;;;;;;;6.97;1.13;;;;;;;;;;4937840;28;20018;-61
2021/09/30 04:19:08;;;;;;;9.68;1.80;;;;;;;;;;4953596;28;20685;-59
2021/09/30 04:21:35;;;;;;;5.63;0.70;;;;;;;;;;4938026;28;20734;-59
2021/09/30 04:24:01;;;;;;;7.55;0.73;;;;;;;;;;4938696;28;20049;-59
2021/09/30 04:26:28;;;;;;;3.78;0.70;;;;;;;;;;4937218;28;20265;-59
2021/09/30 04:28:54;;;;;;;11.60;0.80;;;;;;;;;;4952750;28;21255;-60
2021/09/30 04:31:23;;;;;;;6.07;1.13;;;;;;;;;;4922480;28;20030;-60
2021/09/30 04:33:50;;;;;;;5.60;1.23;;;;;;;;;;4952868;28;20493;-59
2021/09/30 04:36:15;;;;;;;7.82;0.98;;;;;;;;;;4954168;28;20022;-61
2021/09/30 04:38:45;;;;;;;5.97;0.85;;;;;;;;;;4938872;28;20485;-61
2021/09/30 04:41:11;;;;;;;10.98;1.20;;;;;;;;;;4950557;28;20042;-61
2021/09/30 04:43:37;;;;;;;2.10;0.80;;;;;;;;;;4952004;28;20057;-59
2021/09/30 04:46:13;;;;;;;4.90;0.65;;;;;;;;;;4938888;28;21122;-61
2021/09/30 04:48:38;;;;;;;8.65;0.90;;;;;;;;;;4951623;28;20022;-60
2021/09/30 04:51:13;;;;;;;1.13;0.50;;;;;;;;;;4969524;28;20548;-61
2021/09/30 04:53:40;;;;;;;11.38;0.82;;;;;;;;;;4938760;28;20098;-61
2021/09/30 04:56:06;;;;;;;7.05;0.80;;;;;;;;;;4952152;28;20435;-60
2021/09/30 04:58:32;;;;;;;11.88;1.00;;;;;;;;;;4969333;28;21434;-59
2021/09/30 05:00:58;;;;;;;4.15;1.10;;;;;;;;;;4949961;28;20037;-60
2021/09/30 05:03:27;;;;;;;8.38;0.70;;;;;;;;;;4937978;28;20129;-59
2021/09/30 05:06:13;;;;;;;2.03;0.82;;;;;;;;;;4952743;28;20034;-60
2021/09/30 05:08:44;;;;;;;10.68;1.90;;;;;;;;;;4969226;28;20072;-59
2021/09/30 05:11:09;;;;;;;3.55;0.93;;;;;;;;;;4935060;28;20053;-60
2021/09/30 05:13:44;;;;;;;6.63;1.23;;;;;;;;;;4935605;28;20573;-60
2021/09/30 05:16:10;;;;;;;1.42;0.57;;;;;;;;;;4933737;28;20038;-60
2021/09/30 05:18:40;;;;;;;8.43;1.25;;;;;;;;;;4952813;28;20025;-60
2021/09/30 05:21:07;;;;;;;4.10;0.80;;;;;;;;;;4933389;28;20038;-60
2021/09/30 05:23:32;;;;;;;10.63;1.05;;;;;;;;;;4938618;28;20053;-60
2021/09/30 05:25:57;;;;;;;4.45;0.85;;;;;;;;;;4915417;28;21176;-61
2021/09/30 05:28:25;;;;;;;3.50;0.90;;;;;;;;;;4933810;28;20038;-61
2021/09/30 05:30:51;;;;;;;3.05;0.77;;;;;;;;;;4933829;28;20031;-61
2021/09/30 05:33:16;;;;;;;5.85;1.00;;;;;;;;;;4913347;28;20033;-61
2021/09/30 05:35:42;;;;;;;6.78;1.45;;;;;;;;;;4917061;28;20149;-60
2021/09/30 05:38:10;;;;;;;5.40;0.60;;;;;;;;;;4949152;28;20033;-61
2021/09/30 05:40:38;;;;;;;8.60;1.27;;;;;;;;;;4919015;28;20880;-60
2021/09/30 05:43:10;;;;;;;7.88;0.95;;;;;;;;;;4917280;28;20149;-60
2021/09/30 05:45:41;;;;;;;3.00;0.80;;;;;;;;;;4919778;28;20512;-60
2021/09/30 05:48:07;;;;;;;5.00;1.08;;;;;;;;;;4935072;28;20035;-60
2021/09/30 05:50:38;;;;;;;6.65;0.88;;;;;;;;;;4917219;28;20026;-60
2021/09/30 05:53:03;;;;;;;8.73;1.20;;;;;;;;;;4932286;28;20122;-60
2021/09/30 05:55:31;;;;;;;8.98;1.05;;;;;;;;;;4918783;28;20030;-60
2021/09/30 05:57:56;;;;;;;3.60;0.90;;;;;;;;;;4950332;28;20145;-61
2021/09/30 06:16:31;;;;;;;3.72;1.55;;;;;;;;;;4931279;28;20085;-61
2021/09/30 06:18:56;;;;;;;4.15;1.08;;;;;;;;;;4950270;28;20034;-61
2021/09/30 06:21:25;;;;;;;7.47;1.20;;;;;;;;;;4916507;28;20027;-62
2021/09/30 06:23:53;;;;;;;8.88;1.75;;;;;;;;;;4902215;28;20150;-62
2021/09/30 06:26:18;;;;;;;11.88;1.85;;;;;;;;;;4922182;28;20053;-61
2021/09/30 06:28:46;;;;;;;7.75;1.27;;;;;;;;;;4945702;28;20039;-61
2021/09/30 06:31:12;;;;;;;7.65;1.92;;;;;;;;;;4945120;28;22042;-61
2021/09/30 06:33:44;;;;;;;13.63;1.83;;;;;;;;;;4937596;28;20093;-61
2021/09/30 06:36:10;;;;;;;7.07;1.80;;;;;;;;;;4941678;28;20375;-60
2021/09/30 06:38:40;;;;;;;8.55;1.23;;;;;;;;;;4932368;28;20054;-60
2021/09/30 06:41:11;;;;;;;5.43;1.40;;;;;;;;;;4944985;28;20356;-61
2021/09/30 06:43:41;;;;;;;7.50;1.15;;;;;;;;;;4947665;28;20043;-61
2021/09/30 06:46:06;;;;;;;6.10;0.75;;;;;;;;;;4912811;28;20038;-61
2021/09/30 06:48:36;;;;;;;6.20;0.90;;;;;;;;;;4916197;28;20113;-62
2021/09/30 06:51:03;;;;;;;4.05;1.23;;;;;;;;;;4948149;28;20589;-62
2021/09/30 06:53:29;;;;;;;6.00;0.80;;;;;;;;;;4945169;28;20546;-60
2021/09/30 06:56:01;;;;;;;6.65;1.15;;;;;;;;;;4949941;28;20053;-60
2021/09/30 06:58:27;;;;;;;4.60;0.82;;;;;;;;;;4950214;28;20041;-61
2021/09/30 07:00:58;;;;;;;6.72;1.02;;;;;;;;;;4968748;28;20026;-62
2021/09/30 07:03:28;;;;;;;7.53;1.30;;;;;;;;;;4950697;28;20081;-61
2021/09/30 07:05:54;;;;;;;8.88;0.85;;;;;;;;;;4951698;28;20045;-62
2021/09/30 07:08:22;;;;;;;6.63;1.73;;;;;;;;;;4918702;28;20209;-62
2021/09/30 07:10:49;;;;;;;4.10;0.82;;;;;;;;;;4950196;28;20049;-62
2021/09/30 07:16:50;;;;;;;7.63;1.25;;;;;;;;;;4952545;28;20078;-61
2021/09/30 07:19:33;;;;;;;9.55;1.05;;;;;;;;;;4928505;28;20066;-61
2021/09/30 07:25:39;;;;;;;3.95;0.80;;;;;;;;;;4955828;28;22015;-62
2021/09/30 07:28:19;;;;;;;4.47;0.75;;;;;;;;;;4955689;28;20125;-61
2021/09/30 07:30:45;;;;;;;7.60;1.17;;;;;;;;;;4956890;28;20038;-61
2021/09/30 07:33:11;;;;;;;3.45;0.77;;;;;;;;;;4961330;28;20038;-62
2021/09/30 07:35:37;;;;;;;2.40;0.90;;;;;;;;;;4939847;28;20018;-61
2021/09/30 07:38:05;;;;;;;4.15;0.90;;;;;;;;;;4954937;28;20026;-61
2021/09/30 07:40:31;;;;;;;2.35;1.02;;;;;;;;;;4973322;28;20576;-61
2021/09/30 07:42:57;;;;;;;9.63;1.17;;;;;;;;;;4937866;28;20090;-62
2021/09/30 07:45:35;;;;;;;9.45;1.38;;;;;;;;;;4968756;28;20034;-61
2021/09/30 07:48:05;;;;;;;5.30;0.75;;;;;;;;;;4954494;28;20133;-61
2021/09/30 07:54:07;;;;;;;2.40;0.82;;;;;;;;;;4972442;28;20064;-63
2021/09/30 07:56:35;;;;;;;3.78;1.05;;;;;;;;;;4954360;28;20030;-61
2021/09/30 07:59:03;;;;;;;4.45;1.00;;;;;;;;;;4953015;28;20037;-61
2021/09/30 08:01:31;;;;;;;5.82;1.45;;;;;;;;;;4953897;28;20473;-62
2021/09/30 08:04:00;;;;;;;9.85;0.80;;;;;;;;;;4972294;28;20671;-62
2021/09/30 08:06:28;;;;;;;8.02;0.90;;;;;;;;;;4933393;28;20043;-61
2021/09/30 08:12:28;;;;;;;5.38;1.35;;;;;;;;;;4966293;28;20069;-61
2021/09/30 08:19:04;;;;;;;7.17;1.10;;;;;;;;;;4969723;28;20101;-62
2021/09/30 08:21:30;;;;;;;6.35;0.88;;;;;;;;;;4957904;28;20890;-63
2021/09/30 08:23:57;;;;;;;6.32;1.13;;;;;;;;;;4954590;28;20037;-62
2021/09/30 08:26:23;;;;;;;5.47;1.13;;;;;;;;;;4951540;28;20141;-61
2021/09/30 08:29:03;;;;;;;6.57;1.23;;;;;;;;;;4968183;28;20043;-61
2021/09/30 08:35:05;;;;;;;4.53;1.27;;;;;;;;;;4970732;28;20029;-62
2021/09/30 08:37:33;;;;;;;6.93;1.17;;;;;;;;;;4970428;28;20528;-61
2021/09/30 08:40:02;;;;;;;3.83;1.00;;;;;;;;;;4969942;28;20026;-61
2021/09/30 08:42:30;;;;;;;6.32;0.80;;;;;;;;;;4936615;28;20034;-61
2021/09/30 08:45:00;;;;;;;7.25;1.20;;;;;;;;;;4936975;28;20038;-62
2021/09/30 08:51:06;;;;;;;3.83;1.27;;;;;;;;;;4971857;28;20041;-61
2021/09/30 08:53:35;;;;;;;9.15;1.23;;;;;;;;;;4938640;28;20038;-62
2021/09/30 08:56:06;;;;;;;8.65;1.05;;;;;;;;;;4954220;28;20030;-60
2021/09/30 08:58:32;;;;;;;9.00;1.10;;;;;;;;;;4952738;28;20056;-60
2021/09/30 09:00:58;;;;;;;6.30;1.00;;;;;;;;;;4940408;28;20474;-60
2021/09/30 09:03:58;;;;;;;6.00;1.15;;;;;;;;;;4955121;28;20157;-62
2021/09/30 09:06:33;;;;;;;7.32;0.95;;;;;;;;;;4914249;28;20677;-61
2021/09/30 09:09:20;;;;;;;4.00;0.95;;;;;;;;;;4936763;28;20425;-62
2021/09/30 09:11:49;;;;;;;5.45;0.85;;;;;;;;;;4932700;28;20038;-60
2021/09/30 09:14:26;;;;;;;6.97;1.10;;;;;;;;;;4950512;28;20022;-61
2021/09/30 09:16:59;;;;;;;8.88;1.20;;;;;;;;;;4951349;28;20049;-61
2021/09/30 09:23:03;;;;;;;3.50;0.70;;;;;;;;;;4969502;28;20065;-60
2021/09/30 09:25:30;;;;;;;4.28;0.77;;;;;;;;;;4950289;28;20054;-61
2021/09/30 09:27:56;;;;;;;7.07;0.93;;;;;;;;;;4965749;28;20176;-60
2021/09/30 09:30:22;;;;;;;5.28;0.95;;;;;;;;;;4968424;28;20034;-61
2021/09/30 09:33:09;;;;;;;3.58;0.70;;;;;;;;;;4949133;28;20076;-60
2021/09/30 09:35:58;;;;;;;4.18;0.40;;;;;;;;;;4967829;28;20741;-60
2021/09/30 09:38:30;;;;;;;5.88;0.75;;;;;;;;;;4950549;28;20249;-61
2021/09/30 09:40:57;;;;;;;6.00;1.25;;;;;;;;;;4943654;28;20032;-61
2021/09/30 09:43:35;;;;;;;3.72;0.73;;;;;;;;;;4935937;28;20018;-61
2021/09/30 09:46:07;;;;;;;4.55;0.50;;;;;;;;;;4968022;28;20136;-60
2021/09/30 09:48:33;;;;;;;4.25;0.75;;;;;;;;;;4952201;28;20030;-60
2021/09/30 09:51:09;;;;;;;3.63;0.82;;;;;;;;;;4926104;28;20037;-60
2021/09/30 09:53:44;;;;;;;10.50;0.95;;;;;;;;;;4947719;28;20042;-61
2021/09/30 09:56:11;;;;;;;8.70;1.00;;;;;;;;;;4940335;28;20031;-60
2021/09/30 09:58:50;;;;;;;4.80;0.90;;;;;;;;;;4934053;28;20054;-60
2021/09/30 10:01:22;;;;;;;3.67;0.68;;;;;;;;;;4947956;28;20030;-59
2021/09/30 10:03:52;;;;;;;3.85;1.15;;;;;;;;;;4950509;28;20048;-58
2021/09/30 10:09:23;;;;;;;4.40;0.90;;;;;;;;;;4970909;28;20053;-59
2021/09/30 10:11:48;;;;;;;5.78;1.00;;;;;;;;;;4949436;28;20045;-60
2021/09/30 10:14:15;;;;;;;2.40;0.60;;;;;;;;;;4952353;28;20040;-59
2021/09/30 10:16:47;;;;;;;4.15;1.10;;;;;;;;;;4950394;28;21000;-60
2021/09/30 10:19:12;;;;;;;7.95;0.85;;;;;;;;;;4950591;28;20038;-59
2021/09/30 10:25:16;;;;;;;8.20;1.15;;;;;;;;;;4970590;28;20037;-61
2021/09/30 10:27:42;;;;;;;2.83;0.98;;;;;;;;;;4939522;28;20051;-60
2021/09/30 10:30:28;;;;;;;6.88;1.17;;;;;;;;;;4935737;28;20128;-60
2021/09/30 10:32:58;;;;;;;6.72;0.80;;;;;;;;;;4920974;28;20073;-59
2021/09/30 10:35:32;;;;;;;5.57;1.23;;;;;;;;;;4936418;28;20038;-59
2021/09/30 10:38:33;;;;;;;2.08;0.68;;;;;;;;;;4937286;28;20027;-60
2021/09/30 10:41:05;;;;;;;2.85;1.00;;;;;;;;;;4908814;28;20043;-59
2021/09/30 10:43:34;;;;;;;10.75;0.70;;;;;;;;;;4921830;28;20117;-59
2021/09/30 10:46:02;;;;;;;5.05;0.98;;;;;;;;;;4921742;28;20039;-59
2021/09/30 10:48:57;;;;;;;8.68;0.55;;;;;;;;;;4950884;28;20049;-61
2021/09/30 10:51:26;;;;;;;2.63;0.70;;;;;;;;;;4921659;28;20035;-59
2021/09/30 10:53:58;;;;;;;3.40;0.60;;;;;;;;;;4904086;28;20061;-60
2021/09/30 10:56:26;;;;;;;5.75;0.70;;;;;;;;;;4934103;28;20162;-59
2021/09/30 10:59:24;;;;;;;5.60;0.82;;;;;;;;;;4935929;28;20056;-57
2021/09/30 11:01:55;;;;;;;3.92;1.10;;;;;;;;;;4842667;29;20048;-58
2021/09/30 11:04:22;;;;;;;3.20;0.50;;;;;;;;;;4884453;28;20043;-60
2021/09/30 11:07:05;;;;;;;6.95;0.88;;;;;;;;;;4922857;28;20448;-59
2021/09/30 11:09:33;;;;;;;2.75;0.70;;;;;;;;;;4952868;28;20101;-60
2021/09/30 11:12:09;;;;;;;5.70;0.93;;;;;;;;;;4921028;28;20042;-59
2021/09/30 11:14:50;;;;;;;6.38;1.20;;;;;;;;;;4917436;28;20063;-60
2021/09/30 11:17:45;;;;;;;5.07;0.85;;;;;;;;;;4921285;28;20097;-60
2021/09/30 11:20:10;;;;;;;;;;;;;;;;;;4930111;28;20131;-59
2021/09/30 11:22:41;;;;;;;2.30;0.50;;;;;;;;;;4917061;28;19914;-59
2021/09/30 11:28:47;;;;;;;4.80;0.70;;;;;;;;;;4969468;28;20054;-60
2021/09/30 11:31:34;;;;;;;3.13;0.60;;;;;;;;;;4947101;28;20038;-59
2021/09/30 11:34:02;;;;;;;1.67;0.55;;;;;;;;;;4936459;28;20065;-59
2021/09/30 11:36:42;;;;;;;2.97;0.68;;;;;;;;;;4935220;28;20149;-58
2021/09/30 11:39:08;;;;;;;2.80;0.57;;;;;;;;;;4952935;28;20034;-59
2021/09/30 11:41:34;;;;;;;2.47;0.80;;;;;;;;;;4933281;28;20045;-59
2021/09/30 11:44:03;;;;;;;5.63;0.70;;;;;;;;;;4940518;28;20042;-61
2021/09/30 11:46:32;;;;;;;4.13;0.93;;;;;;;;;;4971313;28;20034;-61
2021/09/30 11:49:08;;;;;;;3.13;0.93;;;;;;;;;;4952096;28;20042;-59
2021/09/30 11:51:38;;;;;;;5.43;1.00;;;;;;;;;;4937823;28;20042;-58
2021/09/30 11:54:04;;;;;;;3.05;0.60;;;;;;;;;;4936308;28;20033;-59
2021/09/30 11:56:36;;;;;;;5.13;0.52;;;;;;;;;;4969325;28;20826;-59
2021/09/30 12:03:01;;;;;;;2.57;0.60;;;;;;;;;;4971734;28;20073;-59
2021/09/30 12:09:04;;;;;;;5.30;0.47;;;;;;;;;;4971932;28;21207;-59
2021/09/30 12:11:34;;;;;;;1.52;0.40;;;;;;;;;;4951352;28;20047;-60
2021/09/30 12:14:06;;;;;;;1.80;0.65;;;;;;;;;;4955696;28;20049;-61
2021/09/30 12:16:52;;;;;;;4.30;0.73;;;;;;;;;;4971165;28;20030;-59
2021/09/30 12:19:17;;;;;;;;;;;;;;;;;;4953765;28;20117;-58
2021/09/30 12:21:45;;;;;;;5.25;0.40;;;;;;;;;;4938743;28;19918;-60
2021/09/30 12:24:13;;;;;;;4.03;0.75;;;;;;;;;;4953970;28;20129;-60
2021/09/30 12:26:41;;;;;;;0.95;0.45;;;;;;;;;;4922625;28;20130;-60
2021/09/30 12:29:08;;;;;;;4.57;0.60;;;;;;;;;;4917685;28;20031;-61
2021/09/30 12:31:36;;;;;;;5.65;1.02;;;;;;;;;;4925843;28;20030;-59
2021/09/30 12:34:27;;;;;;;1.85;0.52;;;;;;;;;;4950546;28;20038;-60
2021/09/30 12:36:52;;;;;;;4.35;0.70;;;;;;;;;;4947686;28;20162;-60
2021/09/30 12:39:24;;;;;;;4.88;1.05;;;;;;;;;;4941081;28;20031;-60
2021/09/30 12:41:50;;;;;;;3.25;0.60;;;;;;;;;;4966150;28;20680;-60
2021/09/30 12:48:06;;;;;;;5.68;1.17;;;;;;;;;;4951630;28;20073;-59
2021/09/30 12:50:35;;;;;;;3.95;0.40;;;;;;;;;;4935081;28;20979;-60
2021/09/30 12:53:04;;;;;;;3.10;0.75;;;;;;;;;;4948382;28;20523;-59
2021/09/30 12:55:30;;;;;;;5.07;0.95;;;;;;;;;;4967652;28;20208;-61
2021/09/30 12:57:55;;;;;;;2.42;0.73;;;;;;;;;;4948537;28;20536;-60
2021/09/30 13:00:22;;;;;;;7.07;1.30;;;;;;;;;;4951655;28;20030;-59
2021/09/30 13:02:48;;;;;;;4.95;1.08;;;;;;;;;;4933169;28;20114;-59
2021/09/30 13:05:16;;;;;;;5.85;0.93;;;;;;;;;;4966934;28;20043;-59
2021/09/30 13:07:46;;;;;;;11.70;1.23;;;;;;;;;;4919237;28;20113;-60
2021/09/30 13:10:12;;;;;;;6.80;1.10;;;;;;;;;;4967336;28;20143;-59
2021/09/30 13:12:38;;;;;;;5.88;1.00;;;;;;;;;;4933698;28;20696;-60
2021/09/30 13:15:04;;;;;;;3.50;0.85;;;;;;;;;;4949057;28;20042;-59
2021/09/30 13:17:30;;;;;;;4.07;1.05;;;;;;;;;;4914335;28;20022;-60
2021/09/30 13:27:08;;;;;;;4.57;1.10;;;;;;;;;;4959245;28;20088;-58
2021/09/30 13:29:36;;;;;;;5.95;1.58;;;;;;;;;;4953667;28;20038;-62
2021/09/30 13:32:06;;;;;;;6.03;1.20;;;;;;;;;;4921740;28;20505;-59
2021/09/30 13:34:31;;;;;;;9.68;1.35;;;;;;;;;;4919431;28;20038;-59
2021/09/30 13:36:59;;;;;;;7.03;1.30;;;;;;;;;;4953769;28;20030;-60
2021/09/30 13:39:25;;;;;;;5.20;1.10;;;;;;;;;;4954525;28;20034;-60
2021/09/30 13:41:50;;;;;;;8.98;1.60;;;;;;;;;;4935128;28;20034;-60
2021/09/30 13:44:16;;;;;;;12.25;1.90;;;;;;;;;;4919938;28;20152;-59
2021/09/30 13:50:22;;;;;;;7.53;1.42;;;;;;;;;;4970406;28;20037;-60
2021/09/30 13:52:50;;;;;;;4.88;1.15;;;;;;;;;;4969453;28;20574;-61
2021/09/30 13:55:18;;;;;;;4.95;0.85;;;;;;;;;;4950938;28;20040;-60
2021/09/30 13:57:45;;;;;;;8.05;1.30;;;;;;;;;;4968853;28;20054;-59
2021/09/30 14:00:12;;;;;;;3.90;0.73;;;;;;;;;;4953212;28;20208;-59
2021/09/30 14:02:38;;;;;;;6.13;1.10;;;;;;;;;;4970386;28;20718;-60
2021/09/30 14:05:10;;;;;;;4.43;1.20;;;;;;;;;;4952037;28;20030;-60
2021/09/30 14:10:51;;;;;;;2.40;0.90;;;;;;;;;;4949873;28;20168;-60
2021/09/30 14:13:19;;;;;;;4.55;0.80;;;;;;;;;;4934798;28;20096;-59
2021/09/30 14:15:48;;;;;;;7.35;1.73;;;;;;;;;;4935659;28;20526;-59
2021/09/30 14:18:16;;;;;;;8.85;1.15;;;;;;;;;;4936979;28;20038;-59
2021/09/30 14:20:41;;;;;;;4.13;0.70;;;;;;;;;;4952127;28;20076;-60
2021/09/30 14:23:38;;;;;;;12.57;1.35;;;;;;;;;;4935934;28;20494;-60
2021/09/30 14:26:03;;;;;;;6.20;1.08;;;;;;;;;;4952104;28;20113;-59
2021/09/30 14:28:53;;;;;;;4.85;1.17;;;;;;;;;;4918679;28;20064;-59
2021/09/30 14:31:24;;;;;;;10.48;1.55;;;;;;;;;;4951676;28;20117;-59
2021/09/30 14:33:49;;;;;;;7.95;1.60;;;;;;;;;;4933280;28;20095;-59
2021/09/30 14:36:14;;;;;;;5.30;1.10;;;;;;;;;;4918908;28;20034;-59
2021/09/30 14:38:42;;;;;;;3.38;0.95;;;;;;;;;;4933301;28;20145;-59
2021/09/30 14:41:10;;;;;;;6.78;0.85;;;;;;;;;;4935427;28;20114;-59
2021/09/30 14:43:39;;;;;;;6.95;0.95;;;;;;;;;;4948445;28;20042;-59
2021/09/30 14:46:08;;;;;;;5.65;1.23;;;;;;;;;;4934397;28;20038;-59
2021/09/30 14:48:39;;;;;;;5.43;0.95;;;;;;;;;;4969182;28;20576;-59
2021/09/30 14:51:14;;;;;;;7.57;1.40;;;;;;;;;;4952623;28;20062;-59
2021/09/30 14:53:45;;;;;;;6.35;1.38;;;;;;;;;;4937189;28;20038;-59
2021/09/30 14:56:13;;;;;;;6.88;0.93;;;;;;;;;;4952085;28;20389;-59
2021/09/30 15:02:13;;;;;;;5.95;1.08;;;;;;;;;;4970727;28;20106;-59
2021/09/30 15:05:01;;;;;;;10.30;1.67;;;;;;;;;;4969938;28;20053;-60
2021/09/30 15:07:26;;;;;;;10.33;1.33;;;;;;;;;;4950640;28;20030;-60
2021/09/30 15:10:03;;;;;;;8.75;1.08;;;;;;;;;;4936394;28;20026;-60
2021/09/30 15:12:33;;;;;;;4.70;0.98;;;;;;;;;;4950841;28;20030;-60
2021/09/30 15:15:00;;;;;;;5.53;1.30;;;;;;;;;;4919976;28;20034;-59
2021/09/30 15:17:35;;;;;;;12.38;1.25;;;;;;;;;;4973138;28;20505;-60
2021/09/30 15:20:12;;;;;;;5.43;0.93;;;;;;;;;;4973981;28;20670;-59
2021/09/30 15:22:39;;;;;;;4.35;1.30;;;;;;;;;;4940044;28;20034;-60
2021/09/30 15:25:08;;;;;;;9.63;1.33;;;;;;;;;;4968914;28;20030;-60
2021/09/30 15:27:39;;;;;;;4.47;0.93;;;;;;;;;;4948048;28;20030;-59
2021/09/30 15:30:08;;;;;;;5.50;0.85;;;;;;;;;;4936668;28;20035;-59
2021/09/30 15:33:09;;;;;;;5.90;1.30;;;;;;;;;;4937364;28;20117;-61
2021/09/30 15:35:37;;;;;;;8.10;1.10;;;;;;;;;;4936776;28;20054;-61
2021/09/30 15:38:02;;;;;;;9.13;1.38;;;;;;;;;;4952669;28;20137;-61
2021/09/30 15:40:30;;;;;;;9.80;1.52;;;;;;;;;;4922831;28;20110;-62
2021/09/30 15:42:58;;;;;;;3.05;0.80;;;;;;;;;;4934605;28;20042;-60
2021/09/30 15:45:24;;;;;;;3.20;0.90;;;;;;;;;;4924010;28;20046;-60
2021/09/30 15:51:05;;;;;;;6.35;1.42;;;;;;;;;;4954691;28;20326;-61
2021/09/30 15:53:31;;;;;;;2.78;0.50;;;;;;;;;;4937193;28;20031;-61
2021/09/30 15:55:57;;;;;;;5.07;0.77;;;;;;;;;;4951793;28;20129;-61
2021/09/30 15:58:23;;;;;;;6.07;0.80;;;;;;;;;;4956587;28;20037;-61
2021/09/30 16:01:13;;;;;;;1.52;0.65;;;;;;;;;;4919615;28;20027;-60
2021/09/30 16:03:47;;;;;;;4.05;0.60;;;;;;;;;;4935091;28;20035;-60
2021/09/30 16:06:15;;;;;;;5.55;0.75;;;;;;;;;;4935020;28;20037;-62
2021/09/30 16:11:47;;;;;;;3.80;1.75;;;;;;;;;;4951012;28;20640;-63
2021/09/30 16:14:13;;;;;;;6.40;1.88;;;;;;;;;;4951340;28;20089;-62
2021/09/30 16:16:39;;;;;;;8.65;2.28;;;;;;;;;;4918696;28;20134;-63
2021/09/30 16:19:05;;;;;;;9.40;2.20;;;;;;;;;;4936812;28;20158;-62
2021/09/30 16:21:30;;;;;;;6.47;1.10;;;;;;;;;;4947627;28;20050;-62
2021/09/30 16:23:56;;;;;;;7.70;1.23;;;;;;;;;;4931285;28;20033;-63
2021/09/30 16:26:22;;;;;;;6.13;0.85;;;;;;;;;;4949348;28;20031;-64
2021/09/30 16:28:56;;;;;;;8.07;1.23;;;;;;;;;;4947208;28;20154;-63
2021/09/30 16:31:22;;;;;;;3.85;0.80;;;;;;;;;;4946127;28;20137;-62
2021/09/30 16:33:50;;;;;;;5.35;0.85;;;;;;;;;;4952156;28;20030;-62
2021/09/30 16:36:18;;;;;;;5.30;1.60;;;;;;;;;;4971100;28;20026;-62
2021/09/30 16:38:45;;;;;;;4.15;1.60;;;;;;;;;;4951315;28;20058;-62
2021/09/30 16:41:13;;;;;;;5.22;1.45;;;;;;;;;;4952509;28;20941;-62
2021/09/30 16:43:38;;;;;;;6.18;1.30;;;;;;;;;;4953961;28;20453;-62
2021/09/30 16:46:07;;;;;;;5.00;1.08;;;;;;;;;;4952140;28;20034;-63
2021/09/30 16:48:37;;;;;;;9.15;1.17;;;;;;;;;;4937202;28;20144;-63
2021/09/30 16:51:03;;;;;;;10.93;1.08;;;;;;;;;;4954498;28;20630;-62
2021/09/30 16:53:29;;;;;;;3.42;0.80;;;;;;;;;;4937116;28;20125;-63
2021/09/30 16:56:31;;;;;;;2.42;1.25;;;;;;;;;;4936673;28;20041;-61
2021/09/30 16:58:57;;;;;;;4.43;1.02;;;;;;;;;;4968097;28;20041;-60
2021/09/30 17:01:22;;;;;;;12.68;1.33;;;;;;;;;;4952124;28;20049;-63
2021/09/30 17:03:48;;;;;;;6.07;1.05;;;;;;;;;;4952483;28;20038;-63
2021/09/30 17:06:14;;;;;;;3.25;1.20;;;;;;;;;;4952709;28;20084;-62
2021/09/30 17:08:40;;;;;;;6.15;1.27;;;;;;;;;;4966018;28;20042;-63
2021/09/30 17:11:15;;;;;;;2.88;0.88;;;;;;;;;;4951645;28;20034;-63
2021/09/30 17:13:43;;;;;;;6.68;1.17;;;;;;;;;;4949561;28;20038;-64
2021/09/30 17:16:09;;;;;;;13.85;1.50;;;;;;;;;;4969797;28;20431;-63
2021/09/30 17:18:35;;;;;;;4.05;0.90;;;;;;;;;;4967289;28;20045;-63
2021/09/30 17:21:01;;;;;;;9.73;1.50;;;;;;;;;;4954672;28;20209;-63
2021/09/30 17:23:27;;;;;;;6.35;1.15;;;;;;;;;;4932861;28;22214;-63
2021/09/30 17:29:33;;;;;;;5.72;1.38;;;;;;;;;;4967705;28;20061;-63
2021/09/30 17:32:00;;;;;;;7.70;1.13;;;;;;;;;;4950464;28;20773;-65
2021/09/30 17:34:28;;;;;;;6.15;1.08;;;;;;;;;;4943676;28;20030;-63
2021/09/30 17:36:54;;;;;;;9.57;1.50;;;;;;;;;;4927818;28;20120;-64
2021/09/30 17:39:21;;;;;;;4.18;0.82;;;;;;;;;;4965893;28;20026;-60
2021/09/30 17:41:48;;;;;;;14.70;1.02;;;;;;;;;;4948310;28;20041;-61
2021/09/30 17:44:14;;;;;;;2.35;1.20;;;;;;;;;;4962841;28;20027;-60
2021/09/30 17:46:40;;;;;;;4.03;0.95;;;;;;;;;;4948105;28;20030;-61
2021/09/30 17:49:06;;;;;;;4.65;1.02;;;;;;;;;;4950526;28;20674;-61
2021/09/30 17:51:32;;;;;;;12.57;1.52;;;;;;;;;;4949940;28;20039;-60
2021/09/30 17:54:00;;;;;;;8.10;1.42;;;;;;;;;;4952674;28;20034;-61
2021/09/30 17:56:28;;;;;;;11.85;1.70;;;;;;;;;;4949129;28;20253;-60
2021/09/30 17:58:53;;;;;;;14.05;1.48;;;;;;;;;;4951777;28;20759;-62
2021/09/30 18:01:19;;;;;;;6.20;1.38;;;;;;;;;;4935387;28;20129;-62
2021/09/30 18:03:50;;;;;;;3.33;1.15;;;;;;;;;;4947399;28;20606;-61
2021/09/30 18:06:15;;;;;;;4.63;1.00;;;;;;;;;;4949964;28;21254;-60
2021/09/30 18:08:41;;;;;;;7.82;1.33;;;;;;;;;;4970183;28;20037;-59
2021/09/30 18:11:07;;;;;;;12.95;2.10;;;;;;;;;;4969524;28;20592;-59
2021/09/30 18:13:32;;;;;;;9.10;1.55;;;;;;;;;;4948089;28;20038;-58
2021/09/30 18:16:00;;;;;;;6.47;2.03;;;;;;;;;;4930087;28;20034;-59
2021/09/30 18:18:26;;;;;;;6.30;1.90;;;;;;;;;;4936520;28;20022;-59
2021/09/30 18:23:38;;;;;;;9.15;2.63;;;;;;;;;;4963754;28;20917;-57
2021/09/30 18:26:05;;;;;;;5.97;1.60;;;;;;;;;;4948003;28;20172;-58
2021/09/30 18:28:32;;;;;;;14.25;2.10;;;;;;;;;;4925312;28;20054;-59
2021/09/30 18:31:00;;;;;;;11.05;1.90;;;;;;;;;;4920884;28;20069;-57
2021/09/30 18:33:29;;;;;;;10.05;1.85;;;;;;;;;;4969157;28;20113;-60
2021/09/30 18:35:57;;;;;;;6.82;2.20;;;;;;;;;;4928349;28;20084;-58
2021/09/30 18:38:28;;;;;;;13.85;2.47;;;;;;;;;;4937037;28;20035;-58
2021/09/30 18:40:56;;;;;;;8.82;1.90;;;;;;;;;;4935081;28;20034;-58
2021/09/30 18:43:24;;;;;;;10.25;2.20;;;;;;;;;;4932657;28;20037;-59
2021/09/30 18:45:52;;;;;;;9.48;1.77;;;;;;;;;;4923743;28;20038;-60
2021/09/30 18:48:33;;;;;;;8.82;2.00;;;;;;;;;;4961637;28;20076;-59
2021/09/30 18:51:23;;;;;;;4.78;1.98;;;;;;;;;;4952903;28;20030;-60
2021/09/30 18:53:48;;;;;;;7.22;1.95;;;;;;;;;;4952808;28;20026;-60
2021/09/30 18:56:45;;;;;;;6.93;1.90;;;;;;;;;;4938263;28;20031;-60
2021/09/30 18:59:13;;;;;;;10.40;1.92;;;;;;;;;;4939398;28;20042;-64
2021/09/30 19:01:41;;;;;;;15.68;2.45;;;;;;;;;;4936445;28;20441;-60
2021/09/30 19:04:09;;;;;;;13.55;2.20;;;;;;;;;;4968701;28;20037;-59
2021/09/30 19:06:37;;;;;;;6.05;2.15;;;;;;;;;;4921788;28;20058;-60
2021/09/30 19:09:04;;;;;;;8.27;2.50;;;;;;;;;;4934241;28;20096;-59
2021/09/30 19:11:30;;;;;;;8.98;2.90;;;;;;;;;;4956813;28;20058;-59
2021/09/30 19:14:07;;;;;;;10.27;2.75;;;;;;;;;;4924237;28;20044;-60
2021/09/30 19:16:35;;;;;;;7.30;2.13;;;;;;;;;;4970556;28;20026;-60
2021/09/30 19:19:03;;;;;;;9.77;1.77;;;;;;;;;;4922339;28;20031;-59